Latest Weather Observations for Parafield

IDS60801

Issued at 10:02 am CST Monday 20 April 2015 (issued every 30 minutes, with the page automatically refreshed every 10 minutes)

About weather observations | Map of weather stations | Latest weather observations for SA | Other Formats
Station Details ID: 023013 Name: PARAFIELD AIRPORT Lat: -34.80 Lon: 138.63 Height: 9.5 m
Data from the previous 72 hours. | See also: Recent months at Parafield
Date/Time
CST
Temp
°C
App
Temp
°C
Dew
Point
Rel
Hum
%
Delta-T
°C
Wind Press
QNH
hPa
Press
MSL
hPa
Rain
since 9 am
mm
Dir
 
Spd
km/h
Gust
km/h
Spd
kts
Gust
kts
20/10:00am 14.3 9.8 2.2 44 5.3 SE 15 20 8 11 1039.0 1039.0 0.0
20/09:30am 13.0 10.2 2.0 47 4.7 NW 6 9 3 5 1039.1 1039.1 0.0
20/09:00am 11.4 9.0 2.4 54 3.8 SW 4 7 2 4 1039.2 1039.2 0.0
20/08:30am 10.9 8.8 1.7 53 3.8 SSE 2 7 1 4 1039.3 1039.3 0.0
20/08:00am 9.7 7.1 3.4 65 2.7 SSE 6 9 3 5 1039.2 1039.2 0.0
20/07:30am 6.1 3.3 3.4 83 1.1 ENE 7 9 4 5 1039.1 1039.1 0.0
20/07:00am 3.9 1.0 1.3 83 1.0 S 6 9 3 5 1038.6 1038.6 0.0
20/06:30am 3.8 1.6 1.0 82 1.1 E 2 6 1 3 1038.5 1038.5 0.0
20/06:00am 4.4 1.4 1.1 79 1.3 ESE 6 9 3 5 1038.4 1038.4 0.0
20/05:30am 4.3 1.3 1.0 79 1.3 WSW 6 9 3 5 1038.3 1038.3 0.0
20/05:00am 4.0 0.4 0.9 80 1.2 SE 9 11 5 6 1037.9 1037.9 0.0
20/04:30am 5.4 2.3 1.5 76 1.5 ESE 7 11 4 6 1037.8 1037.8 0.0
20/04:00am 6.1 2.6 1.2 71 1.9 ESE 9 11 5 6 1037.7 1037.7 0.0
20/03:30am 8.0 3.4 1.6 64 2.6 ESE 15 19 8 10 1037.5 1037.4 0.0
20/03:00am 7.8 3.6 1.6 65 2.5 ESE 13 17 7 9 1037.7 1037.7 0.0
20/02:30am 8.6 3.7 2.0 63 2.7 SE 17 20 9 11 1037.8 1037.8 0.0
20/02:00am 8.8 4.3 2.2 63 2.8 SE 15 20 8 11 1037.9 1037.9 0.0
20/01:30am 8.3 3.8 2.3 66 2.5 ESE 15 19 8 10 1037.8 1037.8 0.0
20/01:00am 8.4 4.0 2.6 67 2.4 ESE 15 20 8 11 1037.7 1037.7 0.0
20/12:30am 8.0 4.1 3.3 72 2.0 ESE 13 17 7 9 1037.6 1037.5 0.0
20/12:00am 7.1 4.1 3.9 80 1.4 SE 9 17 5 9 1037.5 1037.4 0.0
 
Date/Time
CST
Temp
°C
App
Temp
°C
Dew
Point
Rel
Hum
%
Delta-T
°C
Wind Press
QNH
hPa
Press
MSL
hPa
Rain
since 9 am
mm
Dir
 
Spd
km/h
Gust
km/h
Spd
kts
Gust
kts
19/11:30pm 7.3 5.9 5.3 87 0.9 NNE 2 9 1 5 1037.8 1037.8 0.0
19/11:00pm 7.0 5.8 4.8 86 1.0 CALM 0 0 0 0 1037.8 1037.8 0.0
19/10:00pm 8.1 5.2 4.5 78 1.6 SSE 9 11 5 6 1037.6 1037.5 0.0
19/09:30pm 7.9 4.6 4.3 78 1.5 SSE 11 15 6 8 1037.3 1037.2 0.0
19/09:00pm 8.6 6.1 4.6 76 1.7 SSE 7 9 4 5 1037.2 1037.1 0.0
19/08:30pm 10.4 7.5 4.8 68 2.5 SSE 9 9 5 5 1036.7 1036.6 0.0
19/08:00pm 10.3 7.4 4.7 68 2.5 SSE 9 15 5 8 1036.5 1036.4 0.0
19/07:30pm 10.2 6.9 4.6 68 2.5 S 11 17 6 9 1036.2 1036.1 0.0
19/07:00pm 11.5 7.5 4.7 63 3.1 SSE 15 20 8 11 1035.8 1035.7 0.0
19/06:30pm 11.6 7.6 5.0 64 3.0 SSE 15 20 8 11 1035.3 1035.2 0.0
19/06:00pm 12.4 7.5 5.1 61 3.3 SSE 20 28 11 15 1035.0 1034.9 0.0
19/05:30pm 13.3 8.3 4.7 56 3.9 SSE 20 28 11 15 1034.4 1034.3 0.0
19/05:00pm 14.7 9.7 4.7 51 4.7 SSE 20 30 11 16 1034.0 1033.9 0.0
19/04:30pm 15.0 9.4 3.2 45 5.3 SSE 22 32 12 17 1033.8 1033.7 0.0
19/04:00pm 15.8 9.0 3.3 43 5.7 SSE 28 44 15 24 1033.6 1033.5 0.0
19/03:30pm 15.8 9.3 2.9 42 5.8 SSE 26 37 14 20 1033.4 1033.3 0.0
19/03:00pm 16.8 11.8 4.8 45 5.6 SSE 20 28 11 15 1033.3 1033.2 0.0
19/02:30pm 16.0 10.3 5.0 48 5.2 SE 24 33 13 18 1033.1 1033.0 0.0
19/02:00pm 16.3 11.6 5.9 50 5.0 SE 20 32 11 17 1032.9 1032.8 0.0
19/01:30pm 15.1 10.5 6.4 56 4.2 SSE 20 28 11 15 1033.1 1033.0 0.0
19/01:00pm 13.6 7.9 6.5 62 3.4 SE 26 46 14 25 1033.2 1033.1 0.0
19/12:59pm 13.8 8.4 6.4 61 3.5 SE 24 46 13 25 1033.2 1033.1 0.0
19/12:30pm 15.7 11.1 5.6 51 4.8 SE 19 28 10 15 1033.3 1033.2 0.0
19/12:00pm 14.7 9.5 5.5 54 4.3 SE 22 30 12 16 1033.6 1033.5 0.0
19/11:30am 13.7 8.7 6.6 62 3.4 SE 22 32 12 17 1033.8 1033.7 0.0
19/11:00am 12.8 6.9 7.3 69 2.7 SSE 28 39 15 21 1033.6 1033.5 0.0
19/10:53am 12.7 8.3 7.4 70 2.6 SSE 20 39 11 21 1033.6 1033.5 0.0
19/10:30am 14.8 11.1 6.4 57 4.0 SE 15 22 8 12 1033.2 1033.1 0.0
19/10:00am 14.1 9.0 6.2 59 3.8 SSE 22 32 12 17 1033.2 1033.1 0.0
19/09:30am 14.2 9.7 6.8 61 3.6 SSE 20 30 11 16 1033.1 1033.0 0.0
19/09:00am 12.7 10.7 7.0 68 2.7 SSW 7 9 4 5 1032.8 1032.7 4.0
19/08:30am 10.9 9.9 7.2 78 1.7 WSW 2 6 1 3 1032.2 1032.1 4.0
19/08:00am 10.0 8.4 7.8 86 1.1 NE 6 7 3 4 1031.5 1031.4 4.0
19/07:30am 7.9 5.8 6.7 92 0.5 ENE 7 9 4 5 1030.7 1030.6 4.0
19/07:00am 6.2 4.7 5.0 92 0.5 WSW 2 7 1 4 1030.1 1030.0 4.0
19/06:30am 6.4 5.3 5.2 92 0.5 CALM 0 0 0 0 1029.5 1029.4 4.0
19/06:00am 6.5 4.3 5.1 91 0.6 E 6 9 3 5 1029.1 1029.0 4.0
19/05:30am 7.2 6.2 5.7 90 0.7 CALM 0 6 0 3 1028.6 1028.5 4.0
19/05:00am 7.6 6.7 5.9 89 0.8 CALM 0 0 0 0 1028.0 1027.9 4.0
19/04:30am 7.6 6.8 6.4 92 0.5 CALM 0 0 0 0 1027.6 1027.5 4.0
19/04:00am 7.4 5.4 6.2 92 0.5 ESE 6 7 3 4 1027.1 1027.0 4.0
19/03:30am 7.5 6.7 6.4 93 0.5 CALM 0 0 0 0 1026.8 1026.7 4.0
19/03:00am 7.5 6.7 6.3 92 0.5 CALM 0 4 0 2 1026.6 1026.5 4.0
19/02:30am 7.9 6.3 6.4 90 0.7 SSE 4 7 2 4 1026.4 1026.3 4.0
19/02:00am 8.6 7.1 6.6 87 0.9 S 4 6 2 3 1026.4 1026.3 4.0
19/01:30am 9.3 7.4 6.7 84 1.2 S 6 6 3 3 1026.2 1026.1 4.0
19/01:00am 9.2 7.1 6.5 83 1.3 S 7 9 4 5 1025.9 1025.8 4.0
19/12:30am 9.5 6.7 6.8 83 1.3 SSW 11 13 6 7 1025.6 1025.5 4.0
19/12:00am 9.4 7.7 7.5 88 0.9 SSE 6 9 3 5 1025.4 1025.3 4.0
 
Date/Time
CST
Temp
°C
App
Temp
°C
Dew
Point
Rel
Hum
%
Delta-T
°C
Wind Press
QNH
hPa
Press
MSL
hPa
Rain
since 9 am
mm
Dir
 
Spd
km/h
Gust
km/h
Spd
kts
Gust
kts
18/11:30pm 9.8 7.8 7.1 83 1.3 SSW 7 7 4 4 1025.1 1025.0 4.0
18/11:00pm 10.3 8.0 7.5 83 1.3 SSW 9 11 5 6 1025.0 1024.9 4.0
18/10:30pm 11.4 8.1 8.1 80 1.6 S 15 19 8 10 1024.7 1024.6 4.0
18/10:00pm 12.3 8.8 8.8 79 1.7 S 17 30 9 16 1024.4 1024.3 4.0
18/09:30pm 12.6 10.0 9.2 80 1.7 S 13 19 7 10 1023.9 1023.8 4.0
18/09:00pm 12.3 9.7 9.3 82 1.5 SSE 13 17 7 9 1023.2 1023.1 4.0
18/08:30pm 11.9 9.2 8.9 82 1.5 S 13 17 7 9 1022.7 1022.6 4.0
18/08:00pm 13.1 10.6 9.7 80 1.7 S 13 15 7 8 1022.1 1022.0 4.0
18/07:30pm 13.4 10.5 9.8 79 1.8 S 15 20 8 11 1021.5 1021.5 4.0
18/07:00pm 13.4 10.2 9.8 79 1.8 S 17 20 9 11 1020.9 1020.9 4.0
18/06:30pm 13.2 9.8 11.3 88 1.0 S 20 26 11 14 1020.2 1020.2 4.0
18/06:18pm 13.2 10.0 11.8 91 0.7 S 20 30 11 16 1020.0 1020.0 4.0
18/06:07pm 13.2 10.0 11.8 91 0.7 S 20 28 11 15 1020.0 1020.0 4.0
18/06:00pm 13.4 10.7 11.8 90 0.9 SSW 17 24 9 13 1019.9 1019.9 3.8
18/05:30pm 13.3 10.1 11.9 91 0.7 SSW 20 30 11 16 1019.1 1019.1 3.8
18/05:00pm 13.9 9.2 11.9 88 1.1 SSW 28 35 15 19 1018.6 1018.6 3.4
18/04:52pm 13.9 8.5 12.3 90 0.9 SSW 32 46 17 25 1018.5 1018.5 3.4
18/04:50pm 13.9 8.5 12.3 90 0.9 SSW 32 46 17 25 1018.5 1018.5 3.4
18/04:30pm 14.1 8.0 13.0 93 0.6 SSW 37 50 20 27 1017.7 1017.7 3.2
18/04:13pm 15.3 12.1 14.2 93 0.6 SW 24 33 13 18 1017.3 1017.3 3.0
18/04:10pm 15.3 11.7 14.2 93 0.6 SSW 26 33 14 18 1017.3 1017.3 2.8
18/04:02pm 15.2 11.1 13.9 92 0.7 SSW 28 37 15 20 1017.1 1017.1 2.2
18/04:00pm 15.2 11.1 13.9 92 0.7 SSW 28 37 15 20 1017.1 1017.1 2.2
18/03:47pm 15.6 10.7 14.3 92 0.7 WSW 33 48 18 26 1016.8 1016.8 2.2
18/03:42pm 16.3 11.9 14.1 87 1.2 W 30 48 16 26 1016.8 1016.8 1.8
18/03:40pm 18.4 14.3 13.9 75 2.6 WNW 28 46 15 25 1016.7 1016.7 0.0
18/03:30pm 18.7 14.1 13.6 72 2.9 WNW 30 39 16 21 1016.5 1016.5 0.0
18/03:00pm 18.6 13.8 13.0 70 3.1 WNW 30 41 16 22 1016.6 1016.6 0.0
18/02:30pm 18.8 15.1 13.9 73 2.8 WNW 26 37 14 20 1016.7 1016.7 0.0
18/02:00pm 19.6 15.5 13.8 69 3.3 WNW 28 44 15 24 1016.8 1016.8 0.0
18/01:30pm 19.1 15.2 14.4 74 2.7 WNW 28 41 15 22 1017.3 1017.3 0.0
18/01:03pm 18.7 16.3 14.4 76 2.5 NW 20 28 11 15 1017.5 1017.5 0.0
18/01:02pm 18.6 16.4 14.9 79 2.2 NW 20 28 11 15 1017.5 1017.5 0.0
18/01:00pm 18.0 15.1 14.1 78 2.2 NW 22 32 12 17 1017.5 1017.5 0.0
18/12:30pm 17.6 13.9 13.9 79 2.1 WNW 26 35 14 19 1018.0 1018.0 0.0
18/12:00pm 17.1 14.1 13.6 80 2.0 NW 22 30 12 16 1018.3 1018.3 0.0
18/11:57am 17.3 14.6 13.6 79 2.1 WNW 20 30 11 16 1018.3 1018.3 0.0
18/11:30am 16.3 11.5 12.8 80 1.9 WNW 30 39 16 21 1018.6 1018.6 0.0
18/11:00am 16.2 13.2 12.7 80 1.9 WNW 20 28 11 15 1018.7 1018.7 0.0
18/10:30am 16.8 12.3 11.3 70 3.0 WNW 26 35 14 19 1018.7 1018.7 0.0
18/10:00am 17.5 14.1 12.4 72 2.8 WNW 22 32 12 17 1018.7 1018.7 0.0
18/09:30am 16.7 13.3 11.2 70 3.0 WNW 20 28 11 15 1018.7 1018.7 0.0
18/09:00am 16.4 12.9 10.9 70 2.9 WNW 20 30 11 16 1018.6 1018.6 0.4
18/08:30am 16.4 13.7 11.8 74 2.5 WNW 17 22 9 12 1018.6 1018.6 0.4
18/08:00am 15.3 14.5 11.1 76 2.2 NNW 6 9 3 5 1018.2 1018.2 0.4
18/07:30am 13.2 13.5 10.9 86 1.2 CALM 0 0 0 0 1017.8 1017.8 0.4
18/07:00am 12.6 11.3 9.8 83 1.4 WNW 7 9 4 5 1017.7 1017.7 0.4
18/06:30am 12.4 10.5 9.2 81 1.6 WNW 9 11 5 6 1017.3 1017.3 0.4
18/06:00am 13.3 10.8 9.7 79 1.8 W 13 15 7 8 1017.0 1017.0 0.4
18/05:30am 13.9 12.6 11.4 85 1.3 WSW 9 11 5 6 1016.8 1016.8 0.4
18/05:00am 14.0 13.8 12.9 93 0.6 NNW 6 7 3 4 1016.6 1016.6 0.4
18/04:49am 14.1 13.9 13.1 94 0.6 N 6 9 3 5 1016.5 1016.5 0.4
18/04:30am 14.0 13.3 13.1 94 0.5 NNW 9 13 5 7 1016.4 1016.4 0.4
18/04:00am 14.0 13.3 13.1 94 0.5 N 9 13 5 7 1016.2 1016.2 0.4
18/03:34am 14.1 13.7 13.1 94 0.6 N 7 9 4 5 1016.2 1016.2 0.2
18/03:30am 14.1 13.7 13.1 94 0.6 N 7 9 4 5 1016.2 1016.2 0.2
18/03:00am 14.0 13.6 13.1 94 0.5 NNE 7 7 4 4 1016.2 1016.2 0.2
18/02:30am 14.1 13.9 13.1 94 0.5 NW 6 7 3 4 1016.4 1016.4 0.2
18/02:00am 14.1 13.7 13.1 94 0.6 W 7 9 4 5 1016.6 1016.6 0.2
18/01:30am 13.9 14.8 13.0 94 0.5 CALM 0 0 0 0 1016.6 1016.6 0.2
18/01:00am 13.7 14.6 12.9 95 0.4 CALM 0 0 0 0 1016.7 1016.7 0.2
18/12:30am 13.8 14.7 13.0 95 0.4 CALM 0 0 0 0 1016.9 1016.9 0.2
18/12:00am 13.7 14.6 12.9 95 0.4 CALM 0 0 0 0 1017.0 1017.0 0.2
 
Date/Time
CST
Temp
°C
App
Temp
°C
Dew
Point
Rel
Hum
%
Delta-T
°C
Wind Press
QNH
hPa
Press
MSL
hPa
Rain
since 9 am
mm
Dir
 
Spd
km/h
Gust
km/h
Spd
kts
Gust
kts
17/11:50pm 13.3 12.9 12.5 95 0.4 ESE 6 7 3 4 1017.0 1017.0 0.2
17/11:30pm 13.7 14.6 12.9 95 0.4 CALM 0 0 0 0 1017.0 1017.0 0.2
17/11:14pm 13.6 14.5 12.8 95 0.4 CALM 0 0 0 0 1017.1 1017.1 0.2
17/11:00pm 13.3 13.3 12.5 95 0.4 W 4 6 2 3 1017.2 1017.2 0.2
17/10:57pm 13.2 12.8 12.4 95 0.4 WNW 6 6 3 3 1017.2 1017.2 0.2
17/10:55pm 13.1 12.7 12.3 95 0.4 WNW 6 6 3 3 1017.3 1017.3 0.2
17/10:42pm 13.0 12.5 12.2 95 0.4 NNW 6 6 3 3 1017.4 1017.4 0.2
17/10:31pm 12.6 12.4 11.7 94 0.5 NNW 4 6 2 3 1017.4 1017.4 0.2
17/10:30pm 12.7 12.5 11.8 94 0.5 NNW 4 6 2 3 1017.4 1017.4 0.2
17/10:00pm 13.6 13.1 12.7 94 0.5 N 7 9 4 5 1017.4 1017.4 0.2
17/09:30pm 13.5 12.9 12.4 93 0.6 NE 7 9 4 5 1017.2 1017.2 0.2
17/09:12pm 13.7 14.5 12.6 93 0.6 CALM 0 0 0 0 1017.1 1017.1 0.2
17/09:00pm 14.0 14.9 12.9 93 0.6 CALM 0 0 0 0 1017.2 1017.2 0.2
17/08:30pm 14.2 13.5 13.1 93 0.6 SW 9 13 5 7 1017.1 1017.1 0.2
17/08:25pm 14.2 13.5 13.1 93 0.6 SW 9 13 5 7 1017.0 1017.0 0.2
17/08:08pm 14.3 13.5 12.9 91 0.8 WSW 9 13 5 7 1017.1 1017.1 0.2
17/08:00pm 14.4 13.9 12.6 89 1.0 SW 7 9 4 5 1017.1 1017.1 0.2
17/07:52pm 14.5 14.6 12.7 89 1.0 SSW 4 7 2 4 1017.1 1017.1 0.2
17/07:30pm 14.4 15.1 12.3 87 1.1 CALM 0 0 0 0 1016.9 1016.9 0.2
17/07:00pm 14.5 14.5 12.4 87 1.1 SSE 4 7 2 4 1016.8 1016.8 0.0
17/06:30pm 14.6 13.9 11.9 84 1.5 ESE 7 11 4 6 1016.4 1016.4 0.0
17/06:00pm 14.9 13.3 11.7 81 1.7 SE 11 15 6 8 1016.1 1016.1 0.0
17/05:30pm 15.5 13.5 11.5 77 2.1 ESE 13 17 7 9 1015.7 1015.7 0.0
17/05:00pm 15.6 13.6 11.4 76 2.3 SE 13 19 7 10 1015.5 1015.5 0.0
17/04:30pm 15.7 13.9 12.1 79 2.0 ESE 13 15 7 8 1015.5 1015.5 0.0
17/04:13pm 15.3 14.3 12.4 83 1.6 ESE 9 15 5 8 1015.5 1015.5 0.0
17/04:00pm 15.0 13.4 12.7 86 1.3 SE 13 15 7 8 1015.6 1015.6 0.0
17/03:59pm 15.2 13.7 13.1 87 1.2 SE 13 17 7 9 1015.6 1015.6 0.0
17/03:45pm 15.1 12.7 12.8 86 1.3 SE 17 20 9 11 1015.7 1015.7 0.0
17/03:37pm 15.5 13.4 12.3 81 1.7 SE 15 20 8 11 1015.6 1015.6 0.0
17/03:30pm 16.0 15.1 12.6 80 1.9 SE 9 15 5 8 1015.6 1015.6 0.0
17/03:00pm 16.3 14.6 12.3 77 2.2 SE 13 15 7 8 1015.8 1015.8 0.0
17/02:30pm 16.3 15.0 12.5 78 2.1 S 11 17 6 9 1015.8 1015.8 0.0
17/02:00pm 16.2 15.1 12.0 76 2.3 ESE 9 11 5 6 1016.1 1016.1 0.0
17/01:30pm 16.5 15.1 12.1 75 2.4 SE 11 17 6 9 1016.4 1016.4 0.0
17/01:00pm 16.2 14.6 12.7 80 1.9 E 13 17 7 9 1017.0 1017.0 0.0
17/12:30pm 16.3 14.5 12.1 76 2.3 ESE 13 17 7 9 1017.6 1017.6 0.0
17/12:03pm 16.1 14.7 12.3 78 2.1 ESE 11 17 6 9 1018.2 1018.2 0.0
17/12:00pm 16.0 15.0 12.2 78 2.1 ESE 9 17 5 9 1018.3 1018.3 0.0
17/11:30am 15.4 13.7 12.3 82 1.7 SE 13 17 7 9 1018.8 1018.8 0.0
17/11:29am 15.5 13.8 12.4 82 1.7 SE 13 17 7 9 1018.8 1018.8 0.0
17/11:00am 15.8 14.0 12.0 78 2.1 ENE 13 20 7 11 1019.3 1019.3 0.0
17/10:30am 15.5 14.3 11.7 78 2.0 E 9 15 5 8 1019.4 1019.4 0.0

Other Formats:

Comma delimited format used in spreadsheet applications
http://www.bom.gov.au/fwo/IDS60801/IDS60801.95677.axf

JavaScript Object Notation format (JSON) in row-major order
http://www.bom.gov.au/fwo/IDS60801/IDS60801.95677.json